Time;durP1;ratioP1;P1;durP2;ratioP2;P2;SDS_P1;SDS_P2;PMS_P1;PMS_P2;Temp;Humidity;BMP_temperature;BMP_pressure;BME280_temperature;BME280_humidity;BME280_pressure;Samples;Min_cycle;Max_cycle;Signal;HPM_P1;HPM_P2
2021/12/31 00:01:39;;;;;;;9.90;3.60;;;;;;;;;;5067138;22;20226;-70
2021/12/31 00:04:04;;;;;;;8.60;4.15;;;;;;;;;;5069539;28;20436;-70
2021/12/31 00:06:29;;;;;;;7.82;4.22;;;;;;;;;;5066477;28;20284;-70
2021/12/31 00:08:54;;;;;;;10.65;4.72;;;;;;;;;;5055917;28;20181;-70
2021/12/31 00:11:19;;;;;;;6.30;4.05;;;;;;;;;;5074253;28;20184;-71
2021/12/31 00:13:45;;;;;;;9.50;5.00;;;;;;;;;;5067737;28;20339;-70
2021/12/31 00:16:10;;;;;;;10.32;4.30;;;;;;;;;;5068096;28;20187;-70
2021/12/31 00:18:35;;;;;;;9.40;4.00;;;;;;;;;;5073599;28;20172;-71
2021/12/31 00:21:01;;;;;;;9.90;3.35;;;;;;;;;;5080677;28;20285;-72
2021/12/31 00:23:27;;;;;;;8.32;4.13;;;;;;;;;;5097925;28;20219;-68
2021/12/31 00:25:52;;;;;;;9.43;4.00;;;;;;;;;;5070627;28;21135;-69
2021/12/31 00:28:18;;;;;;;5.30;3.38;;;;;;;;;;5065293;28;20172;-68
2021/12/31 00:30:43;;;;;;;6.65;2.80;;;;;;;;;;5067017;28;20180;-68
2021/12/31 00:33:08;;;;;;;5.30;3.50;;;;;;;;;;5069705;28;20207;-68
2021/12/31 00:35:34;;;;;;;9.82;3.13;;;;;;;;;;5074667;28;20180;-70
2021/12/31 00:37:59;;;;;;;7.20;3.65;;;;;;;;;;5088306;28;20222;-72
2021/12/31 00:40:26;;;;;;;5.00;2.95;;;;;;;;;;5067861;28;20188;-69
2021/12/31 00:42:52;;;;;;;6.95;3.33;;;;;;;;;;5071445;28;20705;-68
2021/12/31 00:45:18;;;;;;;10.18;3.80;;;;;;;;;;5080812;28;20274;-72
2021/12/31 00:47:44;;;;;;;8.80;3.03;;;;;;;;;;5079565;28;20255;-70
2021/12/31 00:50:10;;;;;;;7.03;4.07;;;;;;;;;;5081181;28;20445;-69
2021/12/31 00:52:35;;;;;;;5.15;2.72;;;;;;;;;;5080390;28;20212;-68
2021/12/31 00:55:01;;;;;;;9.40;3.72;;;;;;;;;;5079876;28;20188;-69
2021/12/31 00:57:26;;;;;;;5.93;2.70;;;;;;;;;;5080726;28;20494;-69
2021/12/31 00:59:51;;;;;;;4.82;2.58;;;;;;;;;;5080898;28;20189;-69
2021/12/31 01:02:18;;;;;;;5.20;2.55;;;;;;;;;;5089934;28;20257;-69
2021/12/31 01:04:44;;;;;;;5.50;2.45;;;;;;;;;;5071487;28;20177;-68
2021/12/31 01:07:09;;;;;;;6.75;3.03;;;;;;;;;;5069887;28;21909;-68
2021/12/31 01:09:34;;;;;;;7.55;2.50;;;;;;;;;;5064099;28;20176;-68
2021/12/31 01:12:01;;;;;;;3.65;2.95;;;;;;;;;;5067256;28;20219;-67
2021/12/31 01:14:34;;;;;;;5.13;2.28;;;;;;;;;;5064803;28;20240;-68
2021/12/31 01:17:05;;;;;;;5.45;2.85;;;;;;;;;;5053553;28;20278;-69
2021/12/31 01:19:46;;;;;;;3.75;2.08;;;;;;;;;;5050396;28;20566;-68
2021/12/31 01:22:13;;;;;;;7.10;2.83;;;;;;;;;;5067142;28;20219;-68
2021/12/31 01:24:38;;;;;;;5.78;2.40;;;;;;;;;;5068255;28;20203;-70
2021/12/31 01:27:03;;;;;;;5.68;2.97;;;;;;;;;;5068300;28;20827;-69
2021/12/31 01:29:28;;;;;;;5.90;2.15;;;;;;;;;;5068229;28;20182;-69
2021/12/31 01:31:55;;;;;;;5.00;2.10;;;;;;;;;;5067740;28;20200;-69
2021/12/31 01:34:22;;;;;;;3.58;2.58;;;;;;;;;;5067261;28;20176;-69
2021/12/31 01:36:47;;;;;;;8.32;2.10;;;;;;;;;;5069002;28;20253;-68
2021/12/31 01:39:12;;;;;;;3.53;1.90;;;;;;;;;;5070003;28;20199;-69
2021/12/31 01:41:38;;;;;;;4.05;2.20;;;;;;;;;;5069279;28;20687;-69
2021/12/31 01:44:04;;;;;;;4.97;2.20;;;;;;;;;;5070924;28;20321;-69
2021/12/31 01:46:30;;;;;;;3.55;2.25;;;;;;;;;;5052859;28;20420;-69
2021/12/31 01:51:24;;;;;;;6.57;2.53;;;;;;;;;;5078593;28;20186;-69
2021/12/31 01:53:49;;;;;;;5.10;2.30;;;;;;;;;;5070599;28;20568;-68
2021/12/31 01:56:15;;;;;;;4.35;2.58;;;;;;;;;;5094607;28;20408;-69
2021/12/31 01:58:41;;;;;;;4.82;2.20;;;;;;;;;;5075734;28;20199;-69
2021/12/31 02:01:06;;;;;;;3.65;2.05;;;;;;;;;;5067513;28;20219;-68
2021/12/31 02:03:32;;;;;;;5.20;2.20;;;;;;;;;;5073752;28;20298;-69
2021/12/31 02:05:57;;;;;;;4.75;2.50;;;;;;;;;;5051887;28;20263;-68
2021/12/31 02:08:22;;;;;;;4.65;2.13;;;;;;;;;;5066623;28;20185;-69
2021/12/31 02:10:51;;;;;;;3.00;1.85;;;;;;;;;;5069219;28;20833;-69
2021/12/31 02:13:16;;;;;;;4.78;2.28;;;;;;;;;;5071606;28;20250;-68
2021/12/31 02:15:42;;;;;;;3.20;1.90;;;;;;;;;;5068492;28;20640;-69
2021/12/31 02:18:09;;;;;;;5.00;2.33;;;;;;;;;;5072103;28;20192;-69
2021/12/31 02:20:45;;;;;;;4.30;1.98;;;;;;;;;;5068392;28;20176;-69
2021/12/31 02:23:23;;;;;;;6.63;2.35;;;;;;;;;;5067457;28;20239;-69
2021/12/31 02:25:49;;;;;;;6.55;2.38;;;;;;;;;;5050896;28;20176;-69
2021/12/31 02:28:15;;;;;;;4.10;1.95;;;;;;;;;;5065355;28;20198;-69
2021/12/31 02:30:40;;;;;;;6.18;2.38;;;;;;;;;;5067174;28;20213;-69
2021/12/31 02:33:05;;;;;;;6.75;2.40;;;;;;;;;;5065999;28;20196;-69
2021/12/31 02:35:32;;;;;;;8.50;2.45;;;;;;;;;;5067031;28;20212;-69
2021/12/31 02:37:57;;;;;;;5.13;2.10;;;;;;;;;;5070544;28;20188;-69
2021/12/31 02:40:24;;;;;;;4.00;2.20;;;;;;;;;;5066418;28;20199;-69
2021/12/31 02:42:49;;;;;;;3.13;2.20;;;;;;;;;;5071419;28;20734;-68
2021/12/31 02:45:14;;;;;;;3.90;1.85;;;;;;;;;;5066805;28;20429;-69
2021/12/31 02:47:45;;;;;;;4.13;1.92;;;;;;;;;;5069235;28;20326;-69
2021/12/31 02:50:12;;;;;;;3.60;2.00;;;;;;;;;;5067096;28;20264;-69
2021/12/31 02:52:37;;;;;;;3.63;1.83;;;;;;;;;;5066730;28;20200;-69
2021/12/31 02:55:03;;;;;;;4.75;2.20;;;;;;;;;;5048689;28;20207;-68
2021/12/31 02:57:28;;;;;;;7.47;2.10;;;;;;;;;;5066936;28;20680;-69
2021/12/31 02:59:53;;;;;;;4.68;2.15;;;;;;;;;;5067796;28;20686;-69
2021/12/31 03:02:24;;;;;;;5.88;2.40;;;;;;;;;;5066663;28;20222;-69
2021/12/31 03:04:50;;;;;;;7.82;2.85;;;;;;;;;;5070388;28;20170;-70
2021/12/31 03:07:16;;;;;;;4.13;2.10;;;;;;;;;;5072161;28;20214;-69
2021/12/31 03:09:46;;;;;;;4.25;2.38;;;;;;;;;;5067252;28;20187;-69
2021/12/31 03:12:12;;;;;;;4.38;2.33;;;;;;;;;;5066590;28;20217;-69
2021/12/31 03:14:38;;;;;;;4.65;2.20;;;;;;;;;;5066469;28;20188;-70
2021/12/31 03:17:04;;;;;;;4.18;2.28;;;;;;;;;;5065699;28;20583;-69
2021/12/31 03:19:29;;;;;;;3.97;2.15;;;;;;;;;;5069445;28;20180;-69
2021/12/31 03:21:54;;;;;;;6.25;2.70;;;;;;;;;;5067469;28;20701;-69
2021/12/31 03:24:19;;;;;;;4.82;2.13;;;;;;;;;;5067348;28;20183;-70
2021/12/31 03:26:44;;;;;;;8.83;2.63;;;;;;;;;;5065035;28;20248;-68
2021/12/31 03:29:10;;;;;;;3.70;2.35;;;;;;;;;;5067511;28;20937;-70
2021/12/31 03:31:35;;;;;;;4.45;2.50;;;;;;;;;;5066174;28;20728;-69
2021/12/31 03:34:00;;;;;;;4.97;2.55;;;;;;;;;;5065773;28;20180;-69
2021/12/31 03:36:25;;;;;;;5.20;2.08;;;;;;;;;;5067852;28;20201;-69
2021/12/31 03:38:50;;;;;;;6.20;2.35;;;;;;;;;;5066502;28;20169;-69
2021/12/31 03:41:16;;;;;;;14.52;3.35;;;;;;;;;;5047864;28;20180;-69
2021/12/31 03:43:41;;;;;;;5.07;2.42;;;;;;;;;;5070241;28;20441;-69
2021/12/31 03:46:07;;;;;;;4.13;2.17;;;;;;;;;;5067010;28;20186;-68
2021/12/31 03:48:32;;;;;;;5.60;2.08;;;;;;;;;;5053103;28;20720;-68
2021/12/31 03:50:57;;;;;;;4.20;2.10;;;;;;;;;;5068818;28;20177;-69
2021/12/31 03:53:23;;;;;;;4.95;2.13;;;;;;;;;;5067750;28;20552;-69
2021/12/31 03:55:48;;;;;;;5.95;2.40;;;;;;;;;;5066809;28;20245;-70
2021/12/31 03:58:13;;;;;;;4.97;2.97;;;;;;;;;;5065204;28;20277;-69
2021/12/31 04:00:38;;;;;;;6.32;2.60;;;;;;;;;;5067143;28;20437;-69
2021/12/31 04:03:04;;;;;;;5.00;2.33;;;;;;;;;;5069147;28;20664;-69
2021/12/31 04:05:29;;;;;;;5.40;2.33;;;;;;;;;;5051877;28;20267;-69
2021/12/31 04:07:55;;;;;;;7.65;2.53;;;;;;;;;;5069510;28;20251;-69
2021/12/31 04:10:23;;;;;;;6.10;2.40;;;;;;;;;;5068720;28;20638;-68
2021/12/31 04:12:48;;;;;;;5.07;2.38;;;;;;;;;;5066917;28;20810;-70
2021/12/31 04:15:13;;;;;;;5.10;2.10;;;;;;;;;;5067706;28;20175;-68
2021/12/31 04:17:40;;;;;;;6.22;2.60;;;;;;;;;;5068717;28;20421;-70
2021/12/31 04:20:07;;;;;;;6.93;2.05;;;;;;;;;;5068795;28;21743;-69
2021/12/31 04:22:32;;;;;;;4.60;1.90;;;;;;;;;;5067633;28;20230;-69
2021/12/31 04:24:57;;;;;;;7.18;2.40;;;;;;;;;;5048474;28;20641;-69
2021/12/31 04:27:23;;;;;;;4.50;2.47;;;;;;;;;;5066207;28;20633;-68
2021/12/31 04:29:52;;;;;;;5.13;2.25;;;;;;;;;;5067171;28;20176;-68
2021/12/31 04:32:22;;;;;;;3.65;2.10;;;;;;;;;;5065924;28;20254;-68
2021/12/31 04:34:47;;;;;;;2.63;2.00;;;;;;;;;;5049445;28;20563;-67
2021/12/31 04:37:12;;;;;;;4.45;1.90;;;;;;;;;;5066053;28;20765;-68
2021/12/31 04:39:37;;;;;;;8.13;2.55;;;;;;;;;;5066243;28;20188;-67
2021/12/31 04:42:03;;;;;;;5.97;2.10;;;;;;;;;;5065469;28;20624;-68
2021/12/31 04:44:28;;;;;;;4.55;1.98;;;;;;;;;;5067031;28;20275;-68
2021/12/31 04:46:53;;;;;;;7.70;2.38;;;;;;;;;;5068658;28;20173;-68
2021/12/31 04:49:18;;;;;;;5.30;2.03;;;;;;;;;;5076982;28;20221;-68
2021/12/31 04:51:43;;;;;;;3.58;2.55;;;;;;;;;;5087642;28;20200;-68
2021/12/31 04:54:14;;;;;;;3.78;2.35;;;;;;;;;;5069428;28;20191;-67
2021/12/31 04:56:39;;;;;;;6.75;2.17;;;;;;;;;;5068278;28;20831;-70
2021/12/31 04:59:05;;;;;;;3.67;1.95;;;;;;;;;;5068533;28;20200;-69
2021/12/31 05:01:30;;;;;;;5.28;2.50;;;;;;;;;;5068918;28;20184;-67
2021/12/31 05:03:55;;;;;;;4.90;2.10;;;;;;;;;;5056254;28;20234;-68
2021/12/31 05:06:20;;;;;;;3.60;1.90;;;;;;;;;;5069797;28;20429;-68
2021/12/31 05:08:45;;;;;;;3.63;2.20;;;;;;;;;;5072545;28;20796;-69
2021/12/31 05:11:10;;;;;;;6.73;2.33;;;;;;;;;;5071123;28;20502;-69
2021/12/31 05:13:35;;;;;;;3.65;1.75;;;;;;;;;;5069602;28;21239;-69
2021/12/31 05:16:03;;;;;;;2.88;2.10;;;;;;;;;;5070613;28;20270;-67
2021/12/31 05:18:29;;;;;;;8.10;2.85;;;;;;;;;;5073813;28;20180;-69
2021/12/31 05:20:54;;;;;;;6.55;2.35;;;;;;;;;;5043052;28;20196;-68
2021/12/31 05:23:20;;;;;;;4.20;2.00;;;;;;;;;;5052685;28;20588;-69
2021/12/31 05:25:45;;;;;;;4.15;2.63;;;;;;;;;;5069831;28;21907;-69
2021/12/31 05:28:10;;;;;;;3.40;2.03;;;;;;;;;;5053521;28;20241;-68
2021/12/31 05:30:35;;;;;;;6.65;2.80;;;;;;;;;;5069839;28;20192;-71
2021/12/31 05:33:00;;;;;;;3.90;1.80;;;;;;;;;;5050244;28;20200;-71
2021/12/31 05:35:26;;;;;;;3.55;1.50;;;;;;;;;;5069802;28;20260;-70
2021/12/31 05:37:51;;;;;;;2.63;1.95;;;;;;;;;;5070322;28;20579;-71
2021/12/31 05:40:16;;;;;;;4.25;2.30;;;;;;;;;;5053820;28;20188;-70
2021/12/31 05:42:42;;;;;;;2.90;2.03;;;;;;;;;;5069640;28;20196;-69
2021/12/31 05:45:09;;;;;;;3.95;2.00;;;;;;;;;;5069331;28;20185;-69
2021/12/31 05:47:34;;;;;;;4.38;1.80;;;;;;;;;;5075281;28;20164;-71
2021/12/31 05:50:00;;;;;;;7.63;2.15;;;;;;;;;;5077541;28;20531;-70
2021/12/31 05:52:25;;;;;;;4.35;1.95;;;;;;;;;;5069602;28;20294;-69
2021/12/31 05:54:50;;;;;;;1.97;1.43;;;;;;;;;;5067533;28;20380;-70
2021/12/31 05:57:15;;;;;;;5.00;1.83;;;;;;;;;;5069185;28;21022;-70
2021/12/31 05:59:40;;;;;;;3.53;1.73;;;;;;;;;;5069883;28;20195;-70
2021/12/31 06:02:06;;;;;;;4.45;1.92;;;;;;;;;;5080495;22;20229;-67
2021/12/31 06:04:31;;;;;;;2.28;1.90;;;;;;;;;;5037247;28;20188;-69
2021/12/31 06:06:57;;;;;;;2.65;1.80;;;;;;;;;;5036729;28;20295;-69
2021/12/31 06:09:22;;;;;;;5.35;2.15;;;;;;;;;;5037092;28;20173;-68
2021/12/31 06:11:47;;;;;;;4.10;1.85;;;;;;;;;;5037112;28;20307;-69
2021/12/31 06:14:13;;;;;;;3.13;2.28;;;;;;;;;;5034246;28;20185;-68
2021/12/31 06:16:42;;;;;;;5.55;2.00;;;;;;;;;;5037677;28;20265;-69
2021/12/31 06:19:11;;;;;;;4.50;2.42;;;;;;;;;;5038469;28;20838;-69
2021/12/31 06:21:40;;;;;;;5.35;1.90;;;;;;;;;;5019105;28;20181;-69
2021/12/31 06:24:06;;;;;;;5.65;2.25;;;;;;;;;;5036219;28;20205;-69
2021/12/31 06:26:32;;;;;;;3.50;2.15;;;;;;;;;;5036686;28;20187;-69
2021/12/31 06:28:57;;;;;;;4.90;1.60;;;;;;;;;;5034829;28;20324;-68
2021/12/31 06:31:23;;;;;;;4.05;1.98;;;;;;;;;;5033243;28;20182;-69
2021/12/31 06:33:48;;;;;;;3.55;1.60;;;;;;;;;;5036652;28;20292;-69
2021/12/31 06:36:13;;;;;;;3.97;1.98;;;;;;;;;;5033939;28;20564;-69
2021/12/31 06:38:39;;;;;;;4.95;2.50;;;;;;;;;;5034458;28;20907;-69
2021/12/31 06:41:04;;;;;;;4.63;1.98;;;;;;;;;;5035131;28;20636;-68
2021/12/31 06:43:29;;;;;;;3.08;1.92;;;;;;;;;;5035285;28;20219;-68
2021/12/31 06:45:54;;;;;;;2.70;2.00;;;;;;;;;;5035391;28;20588;-69
2021/12/31 06:48:19;;;;;;;3.30;2.20;;;;;;;;;;5038535;28;20182;-69
2021/12/31 06:50:44;;;;;;;3.35;2.00;;;;;;;;;;5030378;28;20301;-69
2021/12/31 06:53:10;;;;;;;3.88;2.00;;;;;;;;;;5035193;28;20220;-69
2021/12/31 06:55:35;;;;;;;2.95;2.00;;;;;;;;;;5033245;28;20190;-70
2021/12/31 06:58:00;;;;;;;2.40;1.90;;;;;;;;;;5033426;28;20250;-68
2021/12/31 07:00:25;;;;;;;3.70;2.30;;;;;;;;;;5034873;28;20246;-67
2021/12/31 07:02:51;;;;;;;4.38;2.40;;;;;;;;;;5035709;28;20212;-68
2021/12/31 07:05:16;;;;;;;2.35;1.85;;;;;;;;;;5036740;28;20572;-68
2021/12/31 07:07:41;;;;;;;3.33;2.05;;;;;;;;;;5033807;28;20186;-71
2021/12/31 07:10:07;;;;;;;4.47;2.35;;;;;;;;;;5035833;28;21513;-70
2021/12/31 07:12:32;;;;;;;3.45;2.20;;;;;;;;;;5033116;28;20206;-68
2021/12/31 07:14:58;;;;;;;4.18;1.98;;;;;;;;;;5031636;28;20190;-70
2021/12/31 07:17:23;;;;;;;4.07;2.15;;;;;;;;;;5035538;28;20322;-69
2021/12/31 07:19:48;;;;;;;3.38;2.20;;;;;;;;;;5033582;28;20239;-70
2021/12/31 07:22:13;;;;;;;3.40;1.67;;;;;;;;;;5032949;28;20200;-70
2021/12/31 07:24:38;;;;;;;3.67;1.70;;;;;;;;;;5034309;28;20673;-68
2021/12/31 07:27:04;;;;;;;4.80;2.20;;;;;;;;;;5034694;28;20593;-70
2021/12/31 07:29:29;;;;;;;3.60;2.00;;;;;;;;;;5034252;28;20204;-70
2021/12/31 07:31:54;;;;;;;4.28;1.75;;;;;;;;;;5037679;28;20236;-70
2021/12/31 07:34:19;;;;;;;2.85;1.60;;;;;;;;;;5035326;28;20186;-70
2021/12/31 07:36:44;;;;;;;6.57;3.55;;;;;;;;;;5015786;28;20178;-70
2021/12/31 07:39:12;;;;;;;5.25;2.50;;;;;;;;;;5034823;28;20193;-70
2021/12/31 07:41:37;;;;;;;3.78;1.92;;;;;;;;;;5012259;28;20563;-70
2021/12/31 07:44:03;;;;;;;2.95;2.30;;;;;;;;;;5034018;28;20243;-67
2021/12/31 07:46:28;;;;;;;4.03;2.05;;;;;;;;;;5033566;28;20176;-68
2021/12/31 07:48:53;;;;;;;3.38;2.47;;;;;;;;;;5035655;28;20658;-68
2021/12/31 07:51:19;;;;;;;3.42;2.30;;;;;;;;;;5034097;28;20173;-68
2021/12/31 07:53:44;;;;;;;3.60;1.95;;;;;;;;;;5035659;28;20864;-67
2021/12/31 07:56:09;;;;;;;4.78;2.00;;;;;;;;;;5035868;28;20189;-67
2021/12/31 07:58:34;;;;;;;3.90;2.30;;;;;;;;;;5035349;28;20190;-69
2021/12/31 08:01:00;;;;;;;5.88;2.17;;;;;;;;;;5029201;28;20300;-69
2021/12/31 08:03:25;;;;;;;4.18;2.33;;;;;;;;;;5036657;28;20202;-69
2021/12/31 08:05:50;;;;;;;5.93;2.88;;;;;;;;;;5033537;28;20189;-70
2021/12/31 08:08:15;;;;;;;3.05;2.10;;;;;;;;;;5036748;28;20616;-70
2021/12/31 08:10:41;;;;;;;5.50;2.65;;;;;;;;;;5034640;28;20184;-70
2021/12/31 08:13:06;;;;;;;4.22;3.28;;;;;;;;;;5032491;28;20575;-70
2021/12/31 08:15:31;;;;;;;3.80;2.03;;;;;;;;;;5034019;28;20211;-70
2021/12/31 08:17:56;;;;;;;3.47;1.92;;;;;;;;;;5036422;28;20204;-70
2021/12/31 08:20:22;;;;;;;3.63;2.15;;;;;;;;;;5034841;28;20638;-70
2021/12/31 08:22:47;;;;;;;2.55;2.28;;;;;;;;;;5032879;28;20748;-70
2021/12/31 08:25:12;;;;;;;6.22;3.42;;;;;;;;;;5033186;28;20574;-68
2021/12/31 08:27:38;;;;;;;4.40;2.30;;;;;;;;;;5032214;28;20186;-70
2021/12/31 08:30:03;;;;;;;5.40;2.55;;;;;;;;;;5031205;28;20187;-69
2021/12/31 08:32:28;;;;;;;4.35;1.83;;;;;;;;;;5031885;28;20202;-70
2021/12/31 08:34:53;;;;;;;7.95;2.92;;;;;;;;;;5034062;28;20655;-69
2021/12/31 08:37:19;;;;;;;3.00;2.10;;;;;;;;;;5033252;28;20217;-68
2021/12/31 08:39:44;;;;;;;5.45;2.33;;;;;;;;;;5035396;28;20185;-70
2021/12/31 08:42:09;;;;;;;4.22;2.28;;;;;;;;;;5035032;28;20270;-69
2021/12/31 08:44:34;;;;;;;4.68;2.60;;;;;;;;;;5035703;28;21136;-68
2021/12/31 08:46:59;;;;;;;3.33;2.63;;;;;;;;;;5037190;28;20471;-69
2021/12/31 08:49:25;;;;;;;4.88;2.83;;;;;;;;;;5036530;28;20669;-69
2021/12/31 08:51:50;;;;;;;6.15;2.78;;;;;;;;;;5036184;28;20174;-68
2021/12/31 08:54:15;;;;;;;3.47;2.33;;;;;;;;;;5034322;28;20189;-70
2021/12/31 08:56:41;;;;;;;5.00;2.40;;;;;;;;;;5035328;28;20204;-69
2021/12/31 08:59:06;;;;;;;4.95;2.58;;;;;;;;;;5031760;28;20181;-69
2021/12/31 09:01:31;;;;;;;5.40;2.42;;;;;;;;;;5033003;28;20177;-69
2021/12/31 09:03:57;;;;;;;5.38;2.42;;;;;;;;;;5037478;28;20213;-69
2021/12/31 09:06:22;;;;;;;5.95;2.38;;;;;;;;;;5017430;28;20268;-69
2021/12/31 09:08:47;;;;;;;5.13;2.58;;;;;;;;;;5031732;28;20674;-69
2021/12/31 09:11:13;;;;;;;3.85;2.40;;;;;;;;;;5033811;28;20193;-69
2021/12/31 09:13:38;;;;;;;4.57;2.65;;;;;;;;;;5033587;28;20193;-69
2021/12/31 09:16:04;;;;;;;5.95;2.30;;;;;;;;;;5030138;28;20555;-69
2021/12/31 09:18:29;;;;;;;6.15;2.53;;;;;;;;;;5034524;28;21528;-70
2021/12/31 09:20:54;;;;;;;3.47;2.40;;;;;;;;;;5034055;28;20657;-70
2021/12/31 09:23:20;;;;;;;4.50;2.45;;;;;;;;;;5031488;28;20291;-68
2021/12/31 09:25:45;;;;;;;3.63;2.28;;;;;;;;;;5034790;28;20169;-69
2021/12/31 09:28:10;;;;;;;3.20;2.90;;;;;;;;;;5032451;28;20224;-68
2021/12/31 09:30:36;;;;;;;3.35;2.25;;;;;;;;;;5034242;28;20653;-68
2021/12/31 09:33:01;;;;;;;3.88;2.75;;;;;;;;;;5035123;28;20209;-68
2021/12/31 09:35:26;;;;;;;4.38;2.40;;;;;;;;;;5034739;28;20643;-68
2021/12/31 09:37:51;;;;;;;4.00;2.83;;;;;;;;;;5034285;28;20772;-69
2021/12/31 09:40:18;;;;;;;9.43;3.60;;;;;;;;;;5036051;28;20826;-69
2021/12/31 09:42:59;;;;;;;4.50;2.55;;;;;;;;;;5036945;28;20203;-69
2021/12/31 09:45:24;;;;;;;5.05;2.40;;;;;;;;;;5037486;28;20192;-69
2021/12/31 09:47:49;;;;;;;5.00;2.83;;;;;;;;;;5039915;28;20181;-68
2021/12/31 09:50:15;;;;;;;6.22;3.20;;;;;;;;;;5041360;28;21636;-69
2021/12/31 09:52:41;;;;;;;3.25;2.83;;;;;;;;;;5036353;28;20236;-68
2021/12/31 09:55:06;;;;;;;4.55;2.42;;;;;;;;;;5038011;28;20189;-69
2021/12/31 09:57:31;;;;;;;8.30;3.75;;;;;;;;;;5036511;28;20236;-69
2021/12/31 10:00:02;;;;;;;8.40;3.58;;;;;;;;;;5038277;28;20239;-68
2021/12/31 10:02:28;;;;;;;4.97;2.70;;;;;;;;;;5034881;28;21570;-69
2021/12/31 10:04:54;;;;;;;4.90;3.00;;;;;;;;;;5041296;28;20680;-69
2021/12/31 10:07:21;;;;;;;5.35;3.50;;;;;;;;;;5033966;28;20693;-69
2021/12/31 10:10:01;;;;;;;6.63;2.70;;;;;;;;;;5036909;28;20319;-68
2021/12/31 10:12:42;;;;;;;7.22;3.30;;;;;;;;;;5035368;28;20688;-69
2021/12/31 10:15:07;;;;;;;6.03;3.00;;;;;;;;;;5035077;28;20318;-69
2021/12/31 10:17:35;;;;;;;9.20;3.10;;;;;;;;;;5038652;28;20193;-69
2021/12/31 10:20:00;;;;;;;4.32;2.75;;;;;;;;;;5037507;28;20706;-70
2021/12/31 10:22:25;;;;;;;10.25;3.85;;;;;;;;;;5035893;28;20209;-69
2021/12/31 10:24:51;;;;;;;5.90;3.03;;;;;;;;;;5027732;28;20183;-70
2021/12/31 10:27:17;;;;;;;8.80;3.40;;;;;;;;;;5026816;28;20185;-68
2021/12/31 10:29:51;;;;;;;4.18;3.13;;;;;;;;;;5036703;28;20184;-69
2021/12/31 10:32:16;;;;;;;6.82;3.25;;;;;;;;;;5036630;28;20804;-68
2021/12/31 10:34:41;;;;;;;4.45;3.50;;;;;;;;;;5033469;28;20191;-68
2021/12/31 10:37:14;;;;;;;4.72;2.92;;;;;;;;;;5035333;28;20534;-68
2021/12/31 10:39:40;;;;;;;5.57;2.90;;;;;;;;;;5016771;28;20276;-68
2021/12/31 10:42:07;;;;;;;5.07;3.35;;;;;;;;;;5034067;28;20195;-68
2021/12/31 10:44:51;;;;;;;9.20;3.08;;;;;;;;;;5035017;28;20181;-68
2021/12/31 10:47:18;;;;;;;4.75;2.90;;;;;;;;;;5036791;28;20187;-68
2021/12/31 10:49:55;;;;;;;5.10;2.90;;;;;;;;;;5036323;28;20558;-68
2021/12/31 10:52:25;;;;;;;6.32;3.80;;;;;;;;;;5029979;28;20204;-68
2021/12/31 10:55:01;;;;;;;5.80;3.70;;;;;;;;;;5034120;28;20177;-68
2021/12/31 10:57:37;;;;;;;5.72;4.03;;;;;;;;;;5034776;28;20728;-68
2021/12/31 11:00:05;;;;;;;14.10;6.00;;;;;;;;;;5032192;28;20214;-69
2021/12/31 11:02:35;;;;;;;7.40;3.15;;;;;;;;;;5034683;28;20206;-70
2021/12/31 11:05:00;;;;;;;4.60;3.13;;;;;;;;;;5037067;28;20182;-70
2021/12/31 11:07:28;;;;;;;6.90;2.90;;;;;;;;;;5034275;28;20200;-70
2021/12/31 11:09:55;;;;;;;4.40;3.17;;;;;;;;;;5036446;28;20169;-69
2021/12/31 11:12:20;;;;;;;3.45;2.90;;;;;;;;;;5032138;28;21698;-70
2021/12/31 11:14:45;;;;;;;4.25;3.00;;;;;;;;;;5036449;28;20734;-70
2021/12/31 11:17:10;;;;;;;5.28;3.78;;;;;;;;;;5032820;28;20182;-70
2021/12/31 11:19:39;;;;;;;7.78;3.00;;;;;;;;;;5034880;28;20265;-70
2021/12/31 11:22:04;;;;;;;4.28;2.88;;;;;;;;;;5033938;28;20202;-70
2021/12/31 11:24:36;;;;;;;5.93;3.08;;;;;;;;;;5013109;28;20279;-69
2021/12/31 11:27:20;;;;;;;7.10;3.42;;;;;;;;;;5030273;28;20185;-69
2021/12/31 11:29:45;;;;;;;9.10;3.38;;;;;;;;;;5033590;28;20189;-69
2021/12/31 11:32:11;;;;;;;7.82;3.67;;;;;;;;;;5033110;28;20278;-69
2021/12/31 11:34:37;;;;;;;3.90;2.95;;;;;;;;;;5043175;28;20268;-69
2021/12/31 11:37:02;;;;;;;7.95;3.97;;;;;;;;;;5055399;28;20169;-69
2021/12/31 11:39:29;;;;;;;6.32;3.10;;;;;;;;;;5047137;28;20169;-69
2021/12/31 11:42:04;;;;;;;5.50;3.40;;;;;;;;;;5048285;28;20174;-69
2021/12/31 11:44:30;;;;;;;6.32;3.47;;;;;;;;;;5049349;28;20235;-69
2021/12/31 11:47:11;;;;;;;5.00;3.20;;;;;;;;;;5042073;28;20190;-68
2021/12/31 11:49:36;;;;;;;6.20;3.53;;;;;;;;;;5036121;28;20455;-68
2021/12/31 11:52:01;;;;;;;6.72;4.13;;;;;;;;;;5036511;28;20572;-68
2021/12/31 11:54:27;;;;;;;7.43;3.65;;;;;;;;;;5034580;28;20181;-68
2021/12/31 11:56:53;;;;;;;5.10;3.15;;;;;;;;;;5035237;28;20553;-68
2021/12/31 11:59:24;;;;;;;7.13;4.32;;;;;;;;;;5036162;28;20172;-69
2021/12/31 12:01:55;;;;;;;8.57;2.97;;;;;;;;;;5036286;28;22203;-68
2021/12/31 12:04:33;;;;;;;6.03;3.20;;;;;;;;;;5066513;28;20244;-70
2021/12/31 12:07:01;;;;;;;4.07;2.80;;;;;;;;;;5067477;28;20191;-70
2021/12/31 12:09:35;;;;;;;4.32;3.10;;;;;;;;;;5069183;28;20619;-70
2021/12/31 12:12:01;;;;;;;11.02;2.95;;;;;;;;;;5068918;28;20241;-70
2021/12/31 12:14:29;;;;;;;4.75;3.00;;;;;;;;;;5088598;28;20195;-70
2021/12/31 12:16:56;;;;;;;6.18;3.17;;;;;;;;;;5089134;28;20562;-70
2021/12/31 12:19:21;;;;;;;5.28;3.28;;;;;;;;;;5100991;28;20179;-69
2021/12/31 12:21:51;;;;;;;4.30;2.70;;;;;;;;;;5089169;28;20209;-69
2021/12/31 12:24:22;;;;;;;5.00;2.78;;;;;;;;;;5088878;28;20969;-70
2021/12/31 12:26:47;;;;;;;4.60;2.95;;;;;;;;;;5087232;28;20175;-70
2021/12/31 12:29:23;;;;;;;7.68;3.35;;;;;;;;;;5090342;28;20182;-69
2021/12/31 12:32:06;;;;;;;6.57;3.35;;;;;;;;;;5095119;28;20198;-70
2021/12/31 12:34:31;;;;;;;5.63;3.60;;;;;;;;;;5086217;28;20186;-69
2021/12/31 12:36:56;;;;;;;8.32;3.42;;;;;;;;;;5089310;28;20188;-69
2021/12/31 12:39:22;;;;;;;5.07;3.28;;;;;;;;;;5086616;28;20264;-71
2021/12/31 12:41:48;;;;;;;10.48;3.28;;;;;;;;;;5088873;28;20290;-69
2021/12/31 12:44:13;;;;;;;7.10;4.38;;;;;;;;;;5086980;28;20210;-69
2021/12/31 12:46:49;;;;;;;8.40;3.72;;;;;;;;;;5090284;28;20215;-69
2021/12/31 12:49:17;;;;;;;5.47;3.40;;;;;;;;;;5090629;28;20181;-70
2021/12/31 12:51:43;;;;;;;7.70;3.28;;;;;;;;;;5089063;28;20299;-68
2021/12/31 12:54:11;;;;;;;6.68;4.18;;;;;;;;;;5068107;28;20310;-69
2021/12/31 12:56:36;;;;;;;5.78;3.67;;;;;;;;;;5088200;28;20400;-69
2021/12/31 12:59:02;;;;;;;6.25;3.85;;;;;;;;;;5093059;28;20228;-70
2021/12/31 13:01:34;;;;;;;6.07;4.03;;;;;;;;;;5088426;28;21121;-70
2021/12/31 13:04:00;;;;;;;7.70;3.67;;;;;;;;;;5071068;28;20211;-69
2021/12/31 13:06:26;;;;;;;7.63;5.15;;;;;;;;;;5089025;28;20179;-69
2021/12/31 13:09:23;;;;;;;8.20;4.25;;;;;;;;;;5089329;28;20643;-69
2021/12/31 13:11:51;;;;;;;8.18;4.20;;;;;;;;;;5054652;28;20318;-69
2021/12/31 13:14:17;;;;;;;9.00;4.93;;;;;;;;;;5094388;28;20199;-70
2021/12/31 13:16:43;;;;;;;8.88;4.85;;;;;;;;;;5071497;28;20190;-69
2021/12/31 13:19:10;;;;;;;7.32;4.97;;;;;;;;;;5094018;28;20191;-70
2021/12/31 13:21:36;;;;;;;12.50;4.10;;;;;;;;;;5088682;28;20409;-70
2021/12/31 13:24:01;;;;;;;8.63;4.88;;;;;;;;;;5093720;28;20674;-70
2021/12/31 13:26:27;;;;;;;7.13;4.57;;;;;;;;;;5093631;28;20297;-70
2021/12/31 13:28:59;;;;;;;9.73;4.85;;;;;;;;;;5092448;28;20184;-69
2021/12/31 13:31:31;;;;;;;7.47;4.60;;;;;;;;;;5091537;28;20636;-69
2021/12/31 13:33:56;;;;;;;6.97;4.78;;;;;;;;;;5092363;28;20244;-69
2021/12/31 13:36:28;;;;;;;6.28;4.40;;;;;;;;;;5090963;28;20913;-70
2021/12/31 13:39:10;;;;;;;10.07;4.50;;;;;;;;;;5090786;28;20219;-70
2021/12/31 13:41:47;;;;;;;6.28;4.05;;;;;;;;;;5092959;28;20400;-70
2021/12/31 13:44:14;;;;;;;10.35;5.07;;;;;;;;;;5091737;28;20200;-70
2021/12/31 13:46:44;;;;;;;13.80;5.55;;;;;;;;;;5091454;28;20735;-69
2021/12/31 13:49:11;;;;;;;12.55;6.50;;;;;;;;;;5098753;28;20180;-69
2021/12/31 13:51:37;;;;;;;13.77;6.45;;;;;;;;;;5065117;28;20175;-70
2021/12/31 13:54:03;;;;;;;13.93;5.82;;;;;;;;;;5074240;28;20383;-70
2021/12/31 13:56:32;;;;;;;14.65;6.00;;;;;;;;;;5092783;28;20210;-69
2021/12/31 13:58:57;;;;;;;11.45;6.47;;;;;;;;;;5094505;28;20374;-69
2021/12/31 14:01:23;;;;;;;12.25;5.82;;;;;;;;;;5092916;28;20183;-70
2021/12/31 14:04:07;;;;;;;10.55;6.18;;;;;;;;;;5085811;28;20215;-69
2021/12/31 14:06:33;;;;;;;16.33;6.22;;;;;;;;;;5102792;28;20197;-70
2021/12/31 14:08:58;;;;;;;11.52;6.70;;;;;;;;;;5072884;28;20726;-70
2021/12/31 14:11:23;;;;;;;10.40;5.78;;;;;;;;;;5089450;28;20179;-70
2021/12/31 14:13:48;;;;;;;11.47;5.70;;;;;;;;;;5090246;28;20741;-69
2021/12/31 14:16:13;;;;;;;11.50;5.32;;;;;;;;;;5091716;28;20567;-69
2021/12/31 14:18:39;;;;;;;11.25;5.55;;;;;;;;;;5074365;28;20188;-70
2021/12/31 14:21:04;;;;;;;12.48;6.65;;;;;;;;;;5094705;28;20203;-70
2021/12/31 14:23:30;;;;;;;10.53;6.40;;;;;;;;;;5090189;28;20203;-68
2021/12/31 14:25:55;;;;;;;15.32;6.95;;;;;;;;;;5088534;28;20572;-68
2021/12/31 14:28:20;;;;;;;11.13;6.38;;;;;;;;;;5091251;28;20219;-68
2021/12/31 14:30:45;;;;;;;11.38;5.18;;;;;;;;;;5090195;28;21130;-68
2021/12/31 14:33:12;;;;;;;13.07;6.05;;;;;;;;;;5094104;28;20270;-69
2021/12/31 14:35:40;;;;;;;14.10;8.55;;;;;;;;;;5110280;28;20178;-69
2021/12/31 14:38:10;;;;;;;16.73;10.10;;;;;;;;;;5108228;28;20175;-69
2021/12/31 14:40:37;;;;;;;13.80;9.13;;;;;;;;;;5108738;28;20191;-69